Terminal Aerodrome Forecast
Issued by NWS

Home | Current Version | Previous Version | Text Only | Print | Product List | Glossary On
Versions: 1 2 3 4 5 6 7 8 9 10 11 12 13 14 15
000
FTUS46 KMFR 262320
TAFLMT
TAF
KLMT 262320Z 2700/2724 14008KT P6SM SCT060 BKN100 BKN200
     FM270500 VRB03KT P6SM SCT060 BKN100 BKN200
     FM271700 20011G18KT P6SM BKN060 OVC100
     FM272200 25011G18KT P6SM BKN060 OVC100=

USA.gov is the U.S. government's official web portal to all federal, state and local government web resources and services.